Time;durP1;ratioP1;P1;durP2;ratioP2;P2;SDS_P1;SDS_P2;PMS_P1;PMS_P2;Temp;Humidity;BMP_temperature;BMP_pressure;BME280_temperature;BME280_humidity;BME280_pressure;Samples;Min_cycle;Max_cycle;Signal;HPM_P1;HPM_P2
2022/08/31 00:04:31;;;;;;;13.50;9.90;;;;;;;22.39;100.00;96382.50;5021500;28;20076;-52
2022/08/31 00:07:00;;;;;;;13.93;9.50;;;;;;;22.70;100.00;96376.19;5026232;28;20084;-49
2022/08/31 00:09:29;;;;;;;14.50;9.48;;;;;;;22.86;100.00;96370.22;5019974;28;20077;-50
2022/08/31 00:11:58;;;;;;;14.57;10.00;;;;;;;23.00;100.00;96380.88;5017681;28;20096;-53
2022/08/31 00:14:27;;;;;;;15.40;9.98;;;;;;;23.03;100.00;96380.44;5022090;28;20068;-51
2022/08/31 00:16:56;;;;;;;12.55;9.32;;;;;;;22.96;100.00;96377.81;5019771;28;20080;-49
2022/08/31 00:19:24;;;;;;;13.07;8.82;;;;;;;23.04;100.00;96379.38;5023187;28;20077;-49
2022/08/31 00:21:54;;;;;;;13.23;9.10;;;;;;;22.99;100.00;96377.38;5017985;28;20539;-49
2022/08/31 00:24:22;;;;;;;12.52;9.55;;;;;;;22.96;100.00;96384.00;5023144;28;20079;-51
2022/08/31 00:26:51;;;;;;;13.15;9.90;;;;;;;22.88;100.00;96388.81;5020116;28;20492;-46
2022/08/31 00:29:19;;;;;;;13.00;9.32;;;;;;;22.89;100.00;96380.53;5019638;28;20096;-50
2022/08/31 00:31:47;;;;;;;12.50;9.02;;;;;;;22.93;100.00;96384.47;5017510;28;20073;-47
2022/08/31 00:34:16;;;;;;;12.75;9.48;;;;;;;22.69;100.00;96375.38;5011341;28;20073;-48
2022/08/31 00:36:46;;;;;;;13.35;9.50;;;;;;;22.83;100.00;96372.56;5021376;28;20121;-51
2022/08/31 00:39:15;;;;;;;17.77;10.60;;;;;;;22.58;100.00;96373.44;5015668;28;20085;-52
2022/08/31 00:41:44;;;;;;;12.95;10.70;;;;;;;22.91;100.00;96372.25;5018497;28;20069;-45
2022/08/31 00:44:13;;;;;;;19.02;9.85;;;;;;;22.85;100.00;96357.84;5017410;28;20073;-46
2022/08/31 00:46:42;;;;;;;14.05;9.98;;;;;;;22.57;100.00;96376.34;5021207;28;20628;-52
2022/08/31 00:49:14;;;;;;;15.13;9.98;;;;;;;22.79;100.00;96371.38;5014569;28;20088;-51
2022/08/31 00:51:45;;;;;;;15.45;10.05;;;;;;;22.71;100.00;96372.47;5017767;28;20069;-52
2022/08/31 00:54:16;;;;;;;12.48;9.98;;;;;;;22.81;100.00;96371.94;5016052;28;20069;-48
2022/08/31 00:56:45;;;;;;;13.30;9.38;;;;;;;23.07;100.00;96374.38;5018428;28;20096;-51
2022/08/31 00:59:14;;;;;;;12.45;10.05;;;;;;;22.79;100.00;96374.06;5021576;28;20077;-50
2022/08/31 01:01:43;;;;;;;14.68;10.43;;;;;;;22.84;100.00;96366.94;5016900;28;20120;-47
2022/08/31 01:04:11;;;;;;;12.82;10.48;;;;;;;22.86;100.00;96369.41;5022113;28;20076;-48
2022/08/31 01:06:40;;;;;;;15.80;9.88;;;;;;;22.90;100.00;96373.28;5016511;28;20085;-52
2022/08/31 01:09:08;;;;;;;12.68;10.40;;;;;;;22.60;100.00;96375.88;5022132;28;20077;-50
2022/08/31 01:11:40;;;;;;;14.27;10.15;;;;;;;22.83;100.00;96365.31;5014483;28;20092;-53
2022/08/31 01:14:09;;;;;;;17.13;10.80;;;;;;;22.85;100.00;96370.44;5024192;28;20088;-53
2022/08/31 01:16:41;;;;;;;14.48;9.88;;;;;;;23.02;100.00;96373.38;5019669;28;20077;-48
2022/08/31 01:19:16;;;;;;;13.73;9.80;;;;;;;22.85;100.00;96375.81;5019999;28;20077;-49
2022/08/31 01:21:49;;;;;;;18.85;10.27;;;;;;;22.70;100.00;96377.00;5016197;28;20141;-47
2022/08/31 01:24:19;;;;;;;13.65;9.50;;;;;;;22.91;100.00;96373.06;5021865;28;20077;-48
2022/08/31 01:26:48;;;;;;;16.20;9.98;;;;;;;22.78;100.00;96375.06;5018670;28;20125;-48
2022/08/31 01:29:23;;;;;;;13.25;9.90;;;;;;;22.84;100.00;96376.88;5019717;28;20081;-45
2022/08/31 01:31:51;;;;;;;12.65;10.30;;;;;;;22.84;100.00;96374.19;5017927;28;20100;-49
2022/08/31 01:34:19;;;;;;;12.52;9.93;;;;;;;22.93;100.00;96368.31;5018248;28;20081;-52
2022/08/31 01:36:48;;;;;;;11.57;9.63;;;;;;;22.93;100.00;96371.00;5020901;28;20095;-54
2022/08/31 01:39:16;;;;;;;14.23;9.65;;;;;;;22.88;100.00;96367.31;5020956;28;20088;-47
2022/08/31 01:41:46;;;;;;;14.18;10.20;;;;;;;22.85;100.00;96370.44;5028980;28;20577;-46
2022/08/31 01:44:17;;;;;;;15.68;10.18;;;;;;;22.80;100.00;96376.50;5024325;28;20077;-50
2022/08/31 01:46:45;;;;;;;14.23;10.30;;;;;;;22.66;100.00;96375.00;5023604;28;20460;-48
2022/08/31 01:49:15;;;;;;;19.05;10.40;;;;;;;22.85;100.00;96370.44;5028047;28;20776;-53
2022/08/31 01:51:44;;;;;;;14.35;9.77;;;;;;;22.96;100.00;96377.81;5024615;28;20073;-50
2022/08/31 01:54:12;;;;;;;13.52;9.93;;;;;;;22.71;100.00;96380.53;5025610;28;20086;-48
2022/08/31 01:56:43;;;;;;;12.70;9.82;;;;;;;22.89;100.00;96380.53;5020979;28;20082;-50
2022/08/31 01:59:13;;;;;;;;;;;;;;;23.00;100.00;96380.88;5026772;28;20081;-51
2022/08/31 02:01:43;;;;;;;18.20;10.10;;;;;;;22.98;100.00;96379.22;5034418;28;19952;-53
2022/08/31 02:04:14;;;;;;;13.38;9.35;;;;;;;22.77;100.00;96376.13;5021146;28;20092;-48
2022/08/31 02:06:44;;;;;;;14.70;9.05;;;;;;;22.69;100.00;96372.69;5024463;28;20151;-49
2022/08/31 02:09:13;;;;;;;13.55;8.80;;;;;;;22.89;100.00;96372.47;5027921;28;20077;-51
2022/08/31 02:11:42;;;;;;;15.63;9.90;;;;;;;22.66;100.00;96375.00;5021345;28;20081;-46
2022/08/31 02:14:11;;;;;;;18.08;9.93;;;;;;;22.84;100.00;96374.19;5023372;28;20092;-45
2022/08/31 02:16:40;;;;;;;12.80;9.13;;;;;;;22.96;100.00;96369.75;5023839;28;20451;-49
2022/08/31 02:19:09;;;;;;;14.07;9.00;;;;;;;22.66;100.00;96365.06;5022581;28;20076;-48
2022/08/31 02:21:37;;;;;;;13.38;8.93;;;;;;;22.70;100.00;96362.75;5024037;28;20088;-47
2022/08/31 02:24:06;;;;;;;17.15;9.75;;;;;;;22.83;100.00;96362.63;5021042;28;20092;-46
2022/08/31 02:26:34;;;;;;;17.65;10.50;;;;;;;22.80;100.00;96368.44;5029860;28;20087;-49
2022/08/31 02:29:03;;;;;;;13.15;9.65;;;;;;;23.07;100.00;96370.84;5023475;28;20069;-50
2022/08/31 02:31:33;;;;;;;12.52;9.43;;;;;;;22.93;100.00;96359.44;5028356;28;20077;-46
2022/08/31 02:34:01;;;;;;;13.85;9.82;;;;;;;22.81;100.00;96362.00;5030548;28;20106;-50
2022/08/31 02:36:31;;;;;;;19.38;9.85;;;;;;;22.91;100.00;96369.56;5024359;28;20065;-56
2022/08/31 02:39:03;;;;;;;15.65;10.48;;;;;;;23.02;100.00;96368.00;5022660;28;20088;-54
2022/08/31 02:41:33;;;;;;;16.90;10.25;;;;;;;23.09;100.00;96357.97;5029600;28;20068;-51
2022/08/31 02:44:02;;;;;;;13.68;10.02;;;;;;;22.81;100.00;96363.88;5026561;28;20076;-50
2022/08/31 02:46:30;;;;;;;14.68;9.60;;;;;;;22.98;100.00;96365.75;5027127;28;20065;-48
2022/08/31 02:49:00;;;;;;;17.75;9.13;;;;;;;22.76;100.00;96361.88;5029080;28;20073;-46
2022/08/31 02:51:29;;;;;;;14.63;9.68;;;;;;;22.74;100.00;96355.88;5029939;28;20065;-48
2022/08/31 02:53:57;;;;;;;14.07;9.60;;;;;;;22.89;100.00;96356.34;5030056;28;20077;-49
2022/08/31 02:56:26;;;;;;;13.95;9.77;;;;;;;23.12;100.00;96339.53;5032995;28;20077;-51
2022/08/31 02:58:54;;;;;;;14.05;9.80;;;;;;;22.92;100.00;96342.47;5030485;28;20590;-54
2022/08/31 03:01:23;;;;;;;14.98;10.55;;;;;;;23.18;100.00;96341.31;5026380;28;20080;-49
2022/08/31 03:03:51;;;;;;;17.80;10.52;;;;;;;23.05;100.00;96348.72;5031558;28;20535;-51
2022/08/31 03:06:21;;;;;;;12.10;9.75;;;;;;;22.97;100.00;96345.31;5029946;28;20088;-51
2022/08/31 03:08:50;;;;;;;12.27;9.20;;;;;;;22.89;100.00;96344.78;5028663;28;20085;-54
2022/08/31 03:11:19;;;;;;;12.18;8.77;;;;;;;22.85;100.00;96351.63;5030553;28;20774;-45
2022/08/31 03:13:47;;;;;;;16.65;9.38;;;;;;;22.81;100.00;96350.44;5029583;28;20492;-50
2022/08/31 03:16:15;;;;;;;12.60;9.35;;;;;;;22.69;100.00;96353.06;5027675;28;20096;-52
2022/08/31 03:18:44;;;;;;;14.73;9.63;;;;;;;22.91;100.00;96348.03;5025210;28;20727;-48
2022/08/31 03:21:13;;;;;;;14.00;9.48;;;;;;;22.94;100.00;96344.94;5023133;28;20089;-49
2022/08/31 03:23:42;;;;;;;12.88;9.75;;;;;;;22.87;100.00;96350.34;5021277;28;20069;-54
2022/08/31 03:26:11;;;;;;;13.07;9.70;;;;;;;22.94;100.00;96353.81;5020464;28;20284;-51
2022/08/31 03:28:39;;;;;;;13.65;9.57;;;;;;;23.18;100.00;96362.84;5021495;28;20088;-50
2022/08/31 03:31:08;;;;;;;15.68;9.52;;;;;;;23.11;100.00;96361.28;5021199;28;20456;-49
2022/08/31 03:33:36;;;;;;;12.45;8.57;;;;;;;23.30;100.00;96356.72;5018875;28;20081;-51
2022/08/31 03:36:05;;;;;;;14.45;9.65;;;;;;;23.38;100.00;96351.00;5022801;28;20548;-49
2022/08/31 03:38:33;;;;;;;12.43;9.52;;;;;;;23.35;100.00;96365.72;5019318;28;20528;-50
2022/08/31 03:41:03;;;;;;;13.77;9.23;;;;;;;23.39;100.00;96366.91;5017476;28;20099;-49
2022/08/31 03:43:31;;;;;;;12.23;8.75;;;;;;;23.38;100.00;96369.84;5019856;28;20073;-47
2022/08/31 03:46:00;;;;;;;13.40;9.77;;;;;;;23.53;100.00;96374.81;5024130;28;20089;-45
2022/08/31 03:48:28;;;;;;;14.50;9.57;;;;;;;23.45;100.00;96373.25;5016506;28;20205;-46
2022/08/31 03:50:57;;;;;;;11.85;9.02;;;;;;;23.52;100.00;96375.84;5015918;28;20085;-53
2022/08/31 03:53:25;;;;;;;16.00;9.93;;;;;;;23.55;100.00;96375.41;5019285;28;20088;-52
2022/08/31 03:55:59;;;;;;;17.13;9.65;;;;;;;23.29;100.00;96380.06;5016713;28;20470;-49
2022/08/31 03:58:30;;;;;;;14.90;9.13;;;;;;;23.12;100.00;96385.25;5015079;28;20082;-48
2022/08/31 04:00:58;;;;;;;14.98;9.52;;;;;;;23.26;100.00;96388.59;5024784;28;20073;-50
2022/08/31 04:03:28;;;;;;;15.60;9.85;;;;;;;23.06;100.00;96399.63;5028792;28;20085;-50
2022/08/31 04:05:56;;;;;;;11.57;9.47;;;;;;;23.00;100.00;96394.31;5030255;28;20077;-49
2022/08/31 04:08:25;;;;;;;16.05;10.02;;;;;;;23.20;100.00;96398.41;5030324;28;20495;-51
2022/08/31 04:10:53;;;;;;;15.93;9.30;;;;;;;23.25;100.00;96397.72;5030134;28;20465;-48
2022/08/31 04:13:23;;;;;;;13.25;9.85;;;;;;;23.16;100.00;96396.41;5029436;28;20088;-53
2022/08/31 04:16:00;;;;;;;13.52;9.23;;;;;;;23.16;100.00;96385.66;5024226;28;20076;-49
2022/08/31 04:18:29;;;;;;;12.88;9.13;;;;;;;22.97;100.00;96390.22;5023076;28;20469;-45
2022/08/31 04:20:57;;;;;;;16.67;10.00;;;;;;;23.05;100.00;96389.91;5029290;28;20084;-49
2022/08/31 04:23:28;;;;;;;11.45;8.88;;;;;;;23.13;100.00;96389.59;5029579;28;20084;-47
2022/08/31 04:25:57;;;;;;;17.05;10.50;;;;;;;23.10;100.00;96392.75;5029974;28;20077;-48
2022/08/31 04:28:25;;;;;;;14.77;9.52;;;;;;;23.14;100.00;96401.19;5030176;28;20065;-49
2022/08/31 04:30:54;;;;;;;14.30;9.63;;;;;;;23.25;100.00;96399.59;5029051;28;20084;-48
2022/08/31 04:33:24;;;;;;;16.13;10.40;;;;;;;23.29;100.00;96393.53;5029365;28;20045;-47
2022/08/31 04:35:52;;;;;;;14.20;10.45;;;;;;;23.37;100.00;96395.94;5029902;28;20077;-46
2022/08/31 04:38:20;;;;;;;14.27;9.07;;;;;;;23.29;100.00;96392.72;5029544;28;20092;-48
2022/08/31 04:40:49;;;;;;;14.90;9.45;;;;;;;23.36;100.00;96402.34;5029627;28;20081;-48
2022/08/31 04:43:19;;;;;;;12.65;10.18;;;;;;;23.16;100.00;96405.31;5029282;28;20081;-54
2022/08/31 04:45:51;;;;;;;13.43;9.82;;;;;;;23.13;100.00;96402.25;5029907;28;20085;-49
2022/08/31 04:48:19;;;;;;;14.73;9.45;;;;;;;23.29;100.00;96398.91;5029330;28;20464;-53
2022/08/31 04:50:49;;;;;;;13.02;9.57;;;;;;;23.10;100.00;96400.00;5028035;28;20077;-50
2022/08/31 04:53:17;;;;;;;13.55;9.95;;;;;;;23.20;100.00;96392.22;5028350;28;20132;-46
2022/08/31 04:55:46;;;;;;;12.98;9.55;;;;;;;23.27;100.00;96395.66;5026579;28;20084;-48
2022/08/31 04:58:16;;;;;;;22.85;9.88;;;;;;;23.11;100.00;96398.94;5029418;28;20085;-50
2022/08/31 05:00:44;;;;;;;13.18;9.93;;;;;;;23.34;100.00;96399.06;5023808;28;20092;-48
2022/08/31 05:03:13;;;;;;;15.50;10.05;;;;;;;23.25;100.00;96411.19;5028880;28;20069;-50
2022/08/31 05:05:41;;;;;;;12.60;9.57;;;;;;;23.45;100.00;96406.38;5029460;28;20088;-47
2022/08/31 05:08:11;;;;;;;13.10;10.35;;;;;;;23.52;100.00;96408.16;5029309;28;20107;-49
2022/08/31 05:10:40;;;;;;;13.10;9.45;;;;;;;23.69;100.00;96407.31;5020350;28;20077;-48
2022/08/31 05:13:08;;;;;;;14.95;9.75;;;;;;;23.73;100.00;96402.28;5026449;28;20081;-47
2022/08/31 05:15:41;;;;;;;15.48;10.15;;;;;;;23.72;100.00;96400.66;5024931;28;20096;-47
2022/08/31 05:18:10;;;;;;;15.68;10.40;;;;;;;23.77;100.00;96403.47;5029438;28;20089;-49
2022/08/31 05:20:39;;;;;;;13.90;10.02;;;;;;;23.47;100.00;96414.25;5029259;28;20085;-47
2022/08/31 05:23:07;;;;;;;12.20;9.20;;;;;;;23.88;100.00;96409.94;5029097;28;20085;-45
2022/08/31 05:25:38;;;;;;;13.98;10.00;;;;;;;23.96;100.00;96408.81;5029063;28;20108;-52
2022/08/31 05:28:07;;;;;;;15.13;9.80;;;;;;;23.92;100.00;96408.47;5026163;28;20092;-52
2022/08/31 05:30:36;;;;;;;14.00;10.10;;;;;;;23.90;100.00;96414.06;5028586;28;20118;-53
2022/08/31 05:33:04;;;;;;;13.82;9.93;;;;;;;23.91;100.00;96414.88;5028572;28;20096;-49
2022/08/31 05:35:34;;;;;;;16.65;9.55;;;;;;;24.05;100.00;96410.09;5022723;28;20073;-48
2022/08/31 05:38:02;;;;;;;12.40;10.07;;;;;;;24.21;100.00;96411.31;5022360;28;20554;-52
2022/08/31 05:40:31;;;;;;;14.60;10.40;;;;;;;24.21;100.00;96408.63;5022528;28;20088;-49
2022/08/31 05:43:00;;;;;;;15.75;9.70;;;;;;;23.92;100.00;96406.59;5020492;28;20081;-51
2022/08/31 05:45:29;;;;;;;16.33;11.15;;;;;;;23.64;100.00;96411.69;5024962;28;20476;-48
2022/08/31 05:47:57;;;;;;;13.50;10.13;;;;;;;23.85;100.00;96411.25;5028538;28;20080;-48
2022/08/31 05:50:25;;;;;;;14.23;9.88;;;;;;;23.55;100.00;96407.72;5028694;28;20119;-48
2022/08/31 05:52:54;;;;;;;15.75;10.25;;;;;;;23.67;100.00;96412.13;5027427;28;20084;-48
2022/08/31 05:55:22;;;;;;;12.35;9.65;;;;;;;23.88;100.00;96410.78;5028649;28;20084;-47
2022/08/31 05:57:51;;;;;;;15.88;9.90;;;;;;;24.12;100.00;96410.81;5023757;28;20534;-45
2022/08/31 06:00:21;;;;;;;14.98;9.70;;;;;;;23.81;100.00;96410.06;5028469;28;20088;-50
2022/08/31 06:02:49;;;;;;;15.68;10.63;;;;;;;24.38;100.00;96410.41;5028754;28;20091;-48
2022/08/31 06:05:21;;;;;;;13.48;9.10;;;;;;;24.19;100.00;96414.25;5028036;28;20100;-45
2022/08/31 06:07:49;;;;;;;14.73;10.07;;;;;;;24.65;100.00;96415.38;5019849;28;20046;-51
2022/08/31 06:10:19;;;;;;;16.92;10.77;;;;;;;23.41;100.00;96420.53;5027486;28;20088;-52
2022/08/31 06:12:48;;;;;;;15.63;11.02;;;;;;;23.89;100.00;96419.69;5028007;28;20085;-49
2022/08/31 06:15:17;;;;;;;17.60;10.70;;;;;;;24.06;100.00;96426.06;5028454;28;20073;-46
2022/08/31 06:17:46;;;;;;;16.63;10.32;;;;;;;23.63;100.00;96423.53;5028882;28;20093;-51
2022/08/31 06:20:16;;;;;;;14.43;11.00;;;;;;;24.17;100.00;96427.13;5027652;28;20574;-44
2022/08/31 06:22:45;;;;;;;15.98;10.95;;;;;;;24.22;100.00;96429.94;5028997;28;20081;-48
2022/08/31 06:25:18;;;;;;;14.90;10.38;;;;;;;24.34;100.00;96438.88;5026403;28;20073;-48
2022/08/31 06:27:47;;;;;;;16.20;10.27;;;;;;;24.31;100.00;96441.22;5032551;28;20081;-47
2022/08/31 06:30:18;;;;;;;15.75;10.90;;;;;;;24.69;100.00;96438.13;5031588;28;20489;-50
2022/08/31 06:32:47;;;;;;;13.50;10.63;;;;;;;24.76;100.00;96444.22;5032497;28;20088;-51
2022/08/31 06:35:16;;;;;;;16.65;11.50;;;;;;;24.52;100.00;96448.78;5032393;28;20567;-50
2022/08/31 06:37:45;;;;;;;15.23;10.25;;;;;;;24.62;100.00;96440.94;5032365;28;20081;-50
2022/08/31 06:40:14;;;;;;;15.95;11.02;;;;;;;24.51;100.00;96447.13;5025650;28;20185;-49
2022/08/31 06:42:42;;;;;;;13.02;10.20;;;;;;;24.37;100.00;96446.50;5031463;28;20093;-47
2022/08/31 06:45:12;;;;;;;13.40;10.13;;;;;;;24.19;100.00;96446.59;5031546;28;20081;-46
2022/08/31 06:47:40;;;;;;;15.55;10.38;;;;;;;24.30;100.00;96447.66;5032176;28;20081;-50
2022/08/31 06:50:11;;;;;;;15.48;11.20;;;;;;;23.69;100.00;96450.41;5031531;28;20081;-49
2022/08/31 06:52:39;;;;;;;15.05;10.70;;;;;;;23.90;100.00;96446.38;5030262;28;20091;-49
2022/08/31 06:55:26;;;;;;;15.45;10.40;;;;;;;24.34;100.00;96454.25;5029328;28;20057;-50
2022/08/31 06:57:54;;;;;;;16.02;11.10;;;;;;;24.46;100.00;96451.56;5032012;28;20516;-52
2022/08/31 07:00:22;;;;;;;15.43;10.10;;;;;;;24.31;100.00;96444.72;5030811;28;20083;-53
2022/08/31 07:02:51;;;;;;;13.38;10.13;;;;;;;24.16;100.00;96439.78;5024973;28;20073;-50
2022/08/31 07:05:26;;;;;;;13.70;10.43;;;;;;;24.36;100.00;96450.25;5031494;28;20469;-53
2022/08/31 07:07:54;;;;;;;14.13;9.57;;;;;;;24.33;100.00;96455.28;5027507;28;20578;-48
2022/08/31 07:10:23;;;;;;;18.13;10.73;;;;;;;24.25;100.00;96453.75;5031209;28;20133;-48
2022/08/31 07:12:51;;;;;;;14.35;9.93;;;;;;;24.33;100.00;96460.69;5031553;28;20096;-52
2022/08/31 07:15:19;;;;;;;17.52;10.88;;;;;;;24.52;100.00;96458.75;5031500;28;20073;-52
2022/08/31 07:17:50;;;;;;;13.80;9.57;;;;;;;24.63;100.00;96464.13;5031677;28;20072;-51
2022/08/31 07:20:18;;;;;;;13.02;9.52;;;;;;;24.64;100.00;96470.38;5030575;28;20460;-49
2022/08/31 07:22:48;;;;;;;16.13;10.95;;;;;;;24.26;100.00;96470.72;5029101;28;20127;-49
2022/08/31 07:25:17;;;;;;;16.58;10.48;;;;;;;24.40;100.00;96469.53;5031408;28;20077;-46
2022/08/31 07:27:45;;;;;;;14.60;9.23;;;;;;;24.64;100.00;96470.38;5031169;28;20096;-44
2022/08/31 07:30:14;;;;;;;15.10;9.93;;;;;;;25.06;100.00;96471.06;5031023;28;20073;-48
2022/08/31 07:32:42;;;;;;;12.40;9.82;;;;;;;24.95;100.00;96474.59;5030518;28;20122;-47
2022/08/31 07:35:10;;;;;;;14.70;10.23;;;;;;;24.99;100.00;96469.56;5030358;28;20085;-53
2022/08/31 07:43:13;;;;;;;13.80;10.23;;;;;;;24.56;100.00;96471.50;5027633;28;20069;-48
2022/08/31 07:45:42;;;;;;;13.65;9.88;;;;;;;24.50;100.00;96474.31;5030469;28;20115;-52
2022/08/31 07:48:11;;;;;;;15.02;10.15;;;;;;;24.71;100.00;96471.09;5031038;28;20574;-48
2022/08/31 07:50:45;;;;;;;12.60;10.07;;;;;;;24.08;100.00;96467.03;5029197;28;20093;-53
2022/08/31 07:53:14;;;;;;;13.73;9.63;;;;;;;24.41;100.00;96479.25;5030593;28;20539;-51
2022/08/31 07:55:47;;;;;;;15.20;10.30;;;;;;;24.86;100.00;96476.00;5029208;28;20092;-51
2022/08/31 07:58:16;;;;;;;15.38;9.98;;;;;;;24.33;100.00;96466.91;5028315;28;20089;-51
2022/08/31 08:00:47;;;;;;;13.05;9.75;;;;;;;24.87;100.00;96464.16;5024412;28;20089;-49
2022/08/31 08:03:15;;;;;;;16.48;9.95;;;;;;;24.73;100.00;96468.13;5030072;28;20550;-48
2022/08/31 08:05:46;;;;;;;15.07;9.88;;;;;;;25.02;100.00;96471.78;5030052;28;20076;-55
2022/08/31 08:08:15;;;;;;;15.77;9.38;;;;;;;25.29;100.00;96472.09;5023959;28;20081;-51
2022/08/31 08:10:47;;;;;;;;;;;;;;;25.24;100.00;96475.53;5025092;28;20084;-46
2022/08/31 08:13:21;;;;;;;13.77;10.02;;;;;;;25.55;100.00;96473.47;5030570;28;19964;-53
2022/08/31 08:15:50;;;;;;;14.68;10.00;;;;;;;25.54;100.00;96478.06;5030359;28;20084;-46
2022/08/31 08:18:20;;;;;;;14.48;10.15;;;;;;;25.19;100.00;96480.00;5024032;28;20077;-48
2022/08/31 08:20:48;;;;;;;15.02;9.68;;;;;;;25.43;100.00;96483.47;5029419;28;20108;-46
2022/08/31 08:23:18;;;;;;;20.00;9.47;;;;;;;25.29;100.00;96483.75;5030076;28;20077;-47
2022/08/31 08:26:00;;;;;;;14.98;9.65;;;;;;;25.87;100.00;96476.56;5027780;28;20129;-52
2022/08/31 08:28:31;;;;;;;12.73;9.45;;;;;;;25.73;100.00;96481.38;5030448;28;20081;-52
2022/08/31 08:31:13;;;;;;;14.63;10.32;;;;;;;25.87;100.00;96481.97;5028792;28;20081;-51
2022/08/31 08:33:41;;;;;;;12.55;9.15;;;;;;;25.90;100.00;96492.28;5023726;28;20461;-56
2022/08/31 08:36:10;;;;;;;13.15;9.23;;;;;;;26.18;100.00;96493.34;5024256;28;20073;-57
2022/08/31 08:38:42;;;;;;;14.52;9.90;;;;;;;26.22;100.00;96492.63;5029948;28;20092;-55
2022/08/31 08:41:13;;;;;;;15.10;9.80;;;;;;;26.44;100.00;96490.03;5029463;28;20081;-53
2022/08/31 08:43:47;;;;;;;13.93;9.43;;;;;;;27.12;100.00;96498.16;5029626;28;20081;-53
2022/08/31 08:46:27;;;;;;;14.23;9.48;;;;;;;27.75;100.00;96496.84;5025560;28;20085;-54
2022/08/31 08:49:11;;;;;;;13.30;9.63;;;;;;;26.58;100.00;96503.28;5029616;28;20096;-54
2022/08/31 08:51:40;;;;;;;15.23;10.18;;;;;;;26.85;100.00;96498.84;5028998;28;20571;-50
2022/08/31 08:54:11;;;;;;;13.02;8.95;;;;;;;27.20;100.00;96500.47;5022525;28;20077;-55
2022/08/31 08:56:45;;;;;;;13.65;9.82;;;;;;;27.72;100.00;96502.78;5027923;28;20092;-56
2022/08/31 08:59:16;;;;;;;12.48;9.63;;;;;;;26.80;100.00;96500.63;5024333;28;20536;-52
2022/08/31 09:01:49;;;;;;;12.65;9.40;;;;;;;26.64;100.00;96503.13;5029084;28;20099;-53
2022/08/31 09:04:25;;;;;;;16.48;10.10;;;;;;;26.13;100.00;96502.19;5029632;28;20100;-47
2022/08/31 09:07:01;;;;;;;12.05;9.88;;;;;;;26.15;100.00;96504.63;5029177;28;20072;-48
2022/08/31 09:09:33;;;;;;;11.52;9.10;;;;;;;26.79;100.00;96509.84;5028835;28;20542;-53
2022/08/31 09:12:17;;;;;;;13.63;9.55;;;;;;;26.96;100.00;96505.22;5029009;28;20061;-51
2022/08/31 09:15:27;;;;;;;15.02;9.90;;;;;;;26.14;100.00;96508.41;5026705;28;20088;-49
2022/08/31 09:17:59;;;;;;;13.05;9.77;;;;;;;26.94;100.00;96512.75;5028236;28;20068;-49
2022/08/31 09:20:32;;;;;;;12.32;8.70;;;;;;;27.15;100.00;96514.75;5026138;28;20106;-46
2022/08/31 09:23:06;;;;;;;12.88;9.38;;;;;;;27.56;100.00;96514.47;5029004;28;20093;-50
2022/08/31 09:25:37;;;;;;;12.88;9.60;;;;;;;27.18;100.00;96500.69;5028745;28;20096;-48
2022/08/31 09:28:07;;;;;;;13.48;9.35;;;;;;;27.25;100.00;96500.53;5027439;28;20490;-47
2022/08/31 09:30:54;;;;;;;16.52;9.55;;;;;;;27.06;100.00;96501.88;5025802;28;20077;-53
2022/08/31 09:33:26;;;;;;;14.07;8.95;;;;;;;27.92;100.00;96499.53;5028261;28;20100;-47
2022/08/31 09:36:13;;;;;;;14.48;9.57;;;;;;;28.38;100.00;96505.41;5029139;28;20077;-52
2022/08/31 09:38:44;;;;;;;13.30;9.30;;;;;;;28.85;98.93;96502.88;5029457;28;20060;-50
2022/08/31 09:41:22;;;;;;;14.20;9.77;;;;;;;28.46;100.00;96498.72;5028516;28;20081;-47
2022/08/31 09:43:50;;;;;;;12.70;9.05;;;;;;;29.35;92.97;96498.03;5029089;28;20092;-51
2022/08/31 09:46:26;;;;;;;15.23;9.38;;;;;;;28.65;100.00;96485.59;5028509;28;20493;-49
2022/08/31 09:48:57;;;;;;;11.05;8.23;;;;;;;28.07;97.93;96494.25;5028975;28;20093;-53
2022/08/31 09:51:27;;;;;;;;;;;;;;;27.17;98.50;96498.25;5024673;28;20084;-54
2022/08/31 09:56:54;;;;;;;11.52;7.10;;;;;;;28.64;85.23;96492.94;5023643;28;20127;-46
2022/08/31 09:59:36;;;;;;;11.18;7.72;;;;;;;28.39;87.97;96491.63;5028683;28;20128;-46
2022/08/31 10:02:10;;;;;;;11.38;8.65;;;;;;;27.33;100.00;96491.19;5032710;28;20080;-48
2022/08/31 10:04:49;;;;;;;10.07;7.55;;;;;;;28.35;88.20;96486.94;5033261;28;20665;-51
2022/08/31 10:07:36;;;;;;;11.68;7.68;;;;;;;27.92;84.50;96492.19;5026380;28;20077;-52
2022/08/31 10:10:09;;;;;;;12.25;8.00;;;;;;;28.26;94.75;96494.72;5026903;28;20085;-52
2022/08/31 10:13:00;;;;;;;10.05;7.97;;;;;;;28.83;80.22;96501.47;5032270;28;20080;-49
2022/08/31 10:15:34;;;;;;;11.40;7.78;;;;;;;29.00;86.12;96501.38;5032264;28;20081;-50
2022/08/31 10:18:12;;;;;;;10.52;8.93;;;;;;;28.17;95.08;96502.50;5032509;28;20084;-48
2022/08/31 10:20:45;;;;;;;11.65;8.30;;;;;;;27.82;100.00;96502.13;5032461;28;20081;-46
2022/08/31 10:23:19;;;;;;;10.48;7.93;;;;;;;28.20;99.55;96503.06;5031580;28;20092;-54
2022/08/31 10:25:53;;;;;;;10.70;7.93;;;;;;;28.23;88.78;96507.97;5031967;28;20073;-51
2022/08/31 10:28:30;;;;;;;13.48;7.95;;;;;;;28.43;87.42;96510.94;5030365;28;20084;-51
2022/08/31 10:31:01;;;;;;;12.45;9.07;;;;;;;27.28;100.00;96518.16;5032368;28;20085;-46
2022/08/31 10:35:01;;;;;;;13.25;9.07;;;;;;;27.88;100.00;96509.22;5032145;28;20659;-50
2022/08/31 10:36:31;;;;;;;10.60;8.13;;;;;;;26.31;100.00;96514.66;5031720;28;20511;-47
2022/08/31 10:39:01;;;;;;;10.40;7.93;;;;;;;27.08;100.00;96513.25;5028481;28;20088;-50
2022/08/31 10:41:32;;;;;;;13.55;8.02;;;;;;;27.51;100.00;96509.81;5031745;28;20092;-49
2022/08/31 10:44:06;;;;;;;9.52;8.10;;;;;;;27.01;100.00;96518.00;5031090;28;20080;-52
2022/08/31 10:46:35;;;;;;;13.82;8.85;;;;;;;27.24;100.00;96522.44;5029054;28;20061;-56
2022/08/31 10:49:06;;;;;;;12.70;8.68;;;;;;;27.61;100.00;96522.69;5026017;28;20074;-48
2022/08/31 10:51:40;;;;;;;10.95;8.57;;;;;;;26.80;100.00;96525.81;5022102;28;20077;-51
2022/08/31 10:54:23;;;;;;;10.13;8.65;;;;;;;26.85;100.00;96520.50;5020388;28;20563;-51
2022/08/31 10:56:58;;;;;;;15.18;8.82;;;;;;;27.85;100.00;96534.94;5031733;28;20100;-48
2022/08/31 10:59:34;;;;;;;16.40;9.00;;;;;;;26.77;100.00;96530.91;5031874;28;20080;-46
2022/08/31 11:02:23;;;;;;;18.35;6.75;;;;;;;25.04;100.00;96545.22;5031751;28;20089;-49
2022/08/31 11:05:00;;;;;;;9.57;6.07;;;;;;;23.22;100.00;96559.63;5026991;28;20045;-50
2022/08/31 11:07:40;;;;;;;7.90;5.45;;;;;;;23.05;100.00;96561.22;5030831;28;20080;-50
2022/08/31 11:10:19;;;;;;;13.17;5.83;;;;;;;22.85;100.00;96561.34;5031326;28;20468;-54
2022/08/31 11:12:55;;;;;;;6.38;4.50;;;;;;;22.24;100.00;96566.34;5029970;28;20096;-52
2022/08/31 11:15:50;;;;;;;6.25;4.57;;;;;;;22.65;100.00;96566.91;5025813;28;20084;-51
2022/08/31 11:18:47;;;;;;;5.93;4.53;;;;;;;22.58;100.00;96569.66;5031144;28;20090;-49
2022/08/31 11:21:40;;;;;;;6.13;4.38;;;;;;;22.37;100.00;96578.88;5029639;28;20111;-44
2022/08/31 11:24:21;;;;;;;8.82;4.40;;;;;;;22.07;100.00;96575.09;5028066;28;20073;-55
2022/08/31 11:26:52;;;;;;;9.13;4.75;;;;;;;22.44;100.00;96587.72;5031137;28;20485;-51
2022/08/31 11:29:42;;;;;;;8.70;4.75;;;;;;;22.82;100.00;96586.84;5027411;28;20085;-54
2022/08/31 11:32:18;;;;;;;6.22;5.20;;;;;;;23.32;100.00;96578.75;5030353;28;20489;-54
2022/08/31 11:34:50;;;;;;;9.75;5.78;;;;;;;23.19;100.00;96585.13;5030781;28;20091;-53
2022/08/31 11:37:53;;;;;;;9.80;5.03;;;;;;;22.95;100.00;96584.09;5031237;28;20539;-51
2022/08/31 11:41:12;;;;;;;9.35;5.40;;;;;;;22.94;100.00;96579.72;5027470;28;20565;-54
2022/08/31 11:43:47;;;;;;;7.70;5.57;;;;;;;23.31;100.00;96579.81;5016327;28;20079;-50
2022/08/31 11:46:58;;;;;;;9.88;5.82;;;;;;;22.88;100.00;96571.69;5024480;28;20081;-51
2022/08/31 11:49:44;;;;;;;8.98;6.07;;;;;;;22.53;100.00;96582.91;5019950;28;20650;-47